You are listening to:
KLOU Del/Gnd/Twr - Louisville, Kentucky, United States

KLOU 210353Z AUTO 28013G20KT 10SM OVC021 07/03 A3000 RMK AO2 SLP161 T00720028

If stream does not start automatically press the play button